This is the latest recevied weather packets stored in our database for station/object N0NAI-13. If no packets are shown the sender has not sent any weather packets the latest 10 day(s).
| Time | Temp. | Humidity | Pressure | Rain* | Wind** | Luminosity | Snow |
|---|---|---|---|---|---|---|---|
| 1777782328 | 12.78° C | 49% | 1013.5 hPa | 0 mm | - | - | - |
| 1777781730 | 12.22° C | 50% | 1013.6 hPa | 0 mm | - | - | - |
| 1777781133 | 12.22° C | 51% | 1013.8 hPa | 0 mm | - | - | - |
| 1777780518 | 12.22° C | 51% | 1013.9 hPa | 0 mm | - | - | - |
| 1777779920 | 12.22° C | 50% | 1014.1 hPa | 0 mm | - | - | - |
| 1777779324 | 12.22° C | 50% | 1014.2 hPa | 0 mm | - | - | - |
| 1777778727 | 12.22° C | 50% | 1014.3 hPa | 0 mm | - | - | - |
| 1777778130 | 12.22° C | 49% | 1014.3 hPa | 0 mm | - | - | - |
| 1777777533 | 12.78° C | 49% | 1014.5 hPa | 0 mm | - | - | - |
| 1777776917 | 12.78° C | 49% | 1014.5 hPa | 0 mm | - | - | - |
| 1777776320 | 12.78° C | 49% | 1014.6 hPa | 0 mm | - | - | - |
| 1777775723 | 12.78° C | 47% | 1014.7 hPa | 0 mm | - | - | - |
| 1777775126 | 12.78° C | 45% | 1014.7 hPa | 0 mm | - | - | - |
| 1777774529 | 13.33° C | 45% | 1014.7 hPa | 0 mm | - | - | - |
| 1777773926 | 13.33° C | 44% | 1014.7 hPa | 0 mm | - | - | - |
| 1777773321 | 13.89° C | 43% | 1014.7 hPa | 0 mm | - | - | - |
| 1777769717 | 16.11° C | 39% | 1014.8 hPa | 0 mm | - | - | - |
| 1777768523 | 16.67° C | 38% | 1014.8 hPa | 0 mm | - | - | - |
| 1777767926 | 16.67° C | 38% | 1014.8 hPa | 0 mm | - | - | - |
| 1777767329 | 17.22° C | 37% | 1015 hPa | 0 mm | - | - | - |
| 1777764923 | 18.89° C | 34% | 1015.4 hPa | 0 mm | - | - | - |
| 1777764326 | 19.44° C | 32% | 1015.5 hPa | 0 mm | - | - | - |
| 1777761919 | 21.11° C | 29% | 1015.8 hPa | 0 mm | - | - | - |
| 1777761322 | 20° C | 31% | 1015.8 hPa | 0 mm | - | - | - |
| 1777760719 | 20° C | 32% | 1015.9 hPa | 0 mm | - | - | - |
* Rain latest hour (hover to see other rain measurements)
** Current wind speed in m/s (hover to see current wind gust speed)